Time;durP1;ratioP1;P1;durP2;ratioP2;P2;SDS_P1;SDS_P2;PMS_P1;PMS_P2;Temp;Humidity;BMP_temperature;BMP_pressure;BME280_temperature;BME280_humidity;BME280_pressure;Samples;Min_cycle;Max_cycle;Signal;HPM_P1;HPM_P2
2023/04/11 00:00:26;;;;;;;2.63;2.53;;;7.10;92.80;;;;;;5056219;28;20171;-74
2023/04/11 00:02:53;;;;;;;2.30;1.70;;;7.20;92.80;;;;;;5060333;28;20175;-74
2023/04/11 00:05:19;;;;;;;2.97;2.17;;;7.20;92.60;;;;;;5054555;28;20178;-74
2023/04/11 00:07:45;;;;;;;1.87;1.67;;;7.20;92.80;;;;;;5056135;28;20258;-74
2023/04/11 00:10:11;;;;;;;2.03;1.93;;;7.20;92.80;;;;;;5056906;28;20379;-74
2023/04/11 00:12:37;;;;;;;2.10;2.00;;;7.20;92.80;;;;;;5051850;28;20219;-74
2023/04/11 00:15:03;;;;;;;2.03;1.93;;;7.20;92.80;;;;;;5055194;28;20819;-74
2023/04/11 00:17:30;;;;;;;2.37;2.17;;;7.10;93.00;;;;;;5052927;28;22034;-74
2023/04/11 00:20:00;;;;;;;2.40;2.30;;;7.20;93.00;;;;;;5055812;28;20175;-74
2023/04/11 00:22:26;;;;;;;1.67;1.57;;;7.20;92.90;;;;;;5049073;28;20202;-74
2023/04/11 00:24:52;;;;;;;2.50;2.30;;;7.10;93.50;;;;;;5058647;28;20189;-74
2023/04/11 00:27:17;;;;;;;1.53;1.43;;;7.00;93.80;;;;;;5054793;28;20630;-74
2023/04/11 00:29:43;;;;;;;1.53;1.53;;;6.90;94.10;;;;;;5054897;28;20178;-73
2023/04/11 00:32:09;;;;;;;1.93;1.83;;;6.80;94.50;;;;;;5056165;28;20289;-73
2023/04/11 00:34:34;;;;;;;3.00;2.70;;;6.80;94.80;;;;;;5053148;28;20216;-74
2023/04/11 00:37:00;;;;;;;2.47;2.37;;;6.80;94.80;;;;;;5051154;28;20191;-74
2023/04/11 00:39:29;;;;;;;2.03;1.90;;;6.80;94.90;;;;;;5054770;28;20186;-74
2023/04/11 00:42:06;;;;;;;1.87;1.70;;;6.80;94.90;;;;;;5052582;28;20186;-74
2023/04/11 00:44:32;;;;;;;2.43;2.23;;;6.70;95.00;;;;;;5060765;28;20225;-74
2023/04/11 00:46:59;;;;;;;1.97;1.87;;;6.70;95.00;;;;;;5054873;28;20182;-74
2023/04/11 00:49:25;;;;;;;3.20;2.03;;;6.80;94.90;;;;;;5056385;28;20577;-74
2023/04/11 00:51:52;;;;;;;2.17;2.07;;;6.90;94.50;;;;;;5058531;28;20179;-74
2023/04/11 00:54:17;;;;;;;1.93;1.83;;;6.90;94.50;;;;;;5054566;28;20186;-74
2023/04/11 00:56:43;;;;;;;1.87;1.70;;;6.90;94.40;;;;;;5054948;28;20171;-74
2023/04/11 00:59:09;;;;;;;2.27;2.03;;;7.00;94.10;;;;;;5057439;28;20228;-74
2023/04/11 01:01:37;;;;;;;2.17;2.07;;;7.00;94.00;;;;;;5055569;28;20252;-74
2023/04/11 01:04:03;;;;;;;2.10;1.90;;;7.00;94.20;;;;;;5054215;28;21202;-74
2023/04/11 01:06:29;;;;;;;3.40;2.20;;;6.90;94.20;;;;;;5049019;28;20186;-75
2023/04/11 01:08:56;;;;;;;2.20;2.00;;;6.90;94.30;;;;;;5052334;28;20189;-74
2023/04/11 01:11:22;;;;;;;4.23;2.33;;;7.00;94.30;;;;;;5055656;28;20182;-75
2023/04/11 01:13:49;;;;;;;2.63;2.23;;;6.90;94.50;;;;;;5056408;28;20214;-74
2023/04/11 01:16:20;;;;;;;2.13;1.93;;;7.00;94.50;;;;;;5053278;28;20210;-74
2023/04/11 01:18:46;;;;;;;1.80;1.70;;;7.00;94.40;;;;;;5057007;28;20656;-74
2023/04/11 01:21:12;;;;;;;2.67;2.07;;;6.90;94.50;;;;;;5055283;28;20167;-72
2023/04/11 01:23:38;;;;;;;2.47;2.00;;;6.90;94.50;;;;;;5054292;28;20571;-74
2023/04/11 01:26:03;;;;;;;1.83;1.73;;;6.90;94.60;;;;;;5052977;28;20182;-74
2023/04/11 01:28:29;;;;;;;2.13;1.93;;;6.90;94.70;;;;;;5055112;28;20182;-73
2023/04/11 01:30:56;;;;;;;2.20;2.10;;;6.90;94.80;;;;;;5054191;28;20175;-74
2023/04/11 01:33:22;;;;;;;2.00;1.90;;;7.00;94.70;;;;;;5051446;28;20705;-74
2023/04/11 01:35:48;;;;;;;2.67;2.47;;;6.90;94.60;;;;;;5053498;28;20190;-74
2023/04/11 01:38:14;;;;;;;2.27;2.07;;;6.90;94.60;;;;;;5051112;28;20191;-74
2023/04/11 01:40:41;;;;;;;2.60;2.40;;;6.90;94.90;;;;;;5050581;28;20641;-74
2023/04/11 01:43:08;;;;;;;2.00;1.90;;;6.80;94.70;;;;;;5050311;28;20228;-73
2023/04/11 01:45:35;;;;;;;2.30;2.00;;;6.80;94.90;;;;;;5053423;28;20218;-74
2023/04/11 01:48:07;;;;;;;2.30;2.17;;;6.80;94.90;;;;;;5053226;28;20190;-74
2023/04/11 01:50:33;;;;;;;2.63;2.43;;;6.80;94.80;;;;;;5053224;28;20180;-74
2023/04/11 01:52:59;;;;;;;1.40;1.40;;;6.70;95.10;;;;;;5055941;28;20226;-74
2023/04/11 01:55:25;;;;;;;3.33;2.97;;;6.80;95.00;;;;;;5056379;28;20222;-74
2023/04/11 01:57:50;;;;;;;2.13;2.00;;;6.70;95.20;;;;;;5051610;28;20176;-74
2023/04/11 02:00:16;;;;;;;2.50;2.20;;;6.70;95.20;;;;;;5057774;28;20175;-74
2023/04/11 02:02:42;;;;;;;2.30;2.20;;;6.70;95.10;;;;;;5052554;28;20191;-74
2023/04/11 02:05:08;;;;;;;2.53;2.33;;;6.70;95.20;;;;;;5056978;28;20171;-74
2023/04/11 02:07:34;;;;;;;2.47;2.10;;;6.70;95.00;;;;;;5052438;28;20562;-74
2023/04/11 02:10:00;;;;;;;2.33;2.13;;;6.70;94.90;;;;;;5059110;28;20180;-74
2023/04/11 02:12:25;;;;;;;4.00;2.30;;;6.70;95.10;;;;;;5048316;28;20220;-73
2023/04/11 02:14:51;;;;;;;2.83;2.40;;;6.70;95.40;;;;;;5050147;28;20182;-74
2023/04/11 02:17:17;;;;;;;2.40;2.20;;;6.60;95.40;;;;;;5053006;28;20176;-74
2023/04/11 02:19:44;;;;;;;3.30;2.40;;;6.60;95.50;;;;;;5058310;28;20211;-74
2023/04/11 02:22:16;;;;;;;3.50;2.27;;;6.60;95.60;;;;;;5056335;28;20242;-74
2023/04/11 02:24:41;;;;;;;3.00;2.73;;;6.60;95.70;;;;;;5054514;28;20192;-74
2023/04/11 02:27:08;;;;;;;3.30;3.00;;;6.50;95.70;;;;;;5053433;28;20595;-74
2023/04/11 02:29:34;;;;;;;3.80;2.17;;;6.60;95.50;;;;;;5058576;28;20183;-74
2023/04/11 02:32:00;;;;;;;3.10;2.80;;;6.50;95.50;;;;;;5055742;28;20180;-73
2023/04/11 02:34:26;;;;;;;3.00;2.73;;;6.50;95.70;;;;;;5057765;28;20213;-74
2023/04/11 02:36:52;;;;;;;2.83;2.17;;;6.50;95.80;;;;;;5051953;28;20548;-74
2023/04/11 02:39:22;;;;;;;4.17;2.87;;;6.40;95.90;;;;;;5052872;28;20175;-74
2023/04/11 02:41:48;;;;;;;2.37;2.17;;;6.40;96.00;;;;;;5058280;28;20662;-74
2023/04/11 02:44:13;;;;;;;2.87;2.60;;;6.40;96.00;;;;;;5056079;28;20321;-74
2023/04/11 02:46:39;;;;;;;2.50;2.30;;;6.30;96.20;;;;;;5055583;28;20510;-74
2023/04/11 02:49:05;;;;;;;3.77;3.07;;;6.30;96.30;;;;;;5059097;28;20259;-73
2023/04/11 02:51:32;;;;;;;4.53;3.47;;;6.40;96.20;;;;;;5059424;28;20179;-73
2023/04/11 02:53:58;;;;;;;3.47;3.17;;;6.40;96.10;;;;;;5056613;28;20287;-74
2023/04/11 02:56:23;;;;;;;3.93;3.17;;;6.40;95.70;;;;;;5055192;28;20348;-74
2023/04/11 02:58:51;;;;;;;8.40;2.90;;;6.50;95.20;;;;;;5055341;28;20602;-74
2023/04/11 03:01:18;;;;;;;3.53;2.67;;;6.40;95.30;;;;;;5058441;28;20180;-73
2023/04/11 03:03:44;;;;;;;3.20;2.90;;;6.40;95.50;;;;;;5058135;28;20619;-73
2023/04/11 03:06:10;;;;;;;4.73;2.90;;;6.40;95.50;;;;;;5056573;28;20180;-74
2023/04/11 03:08:36;;;;;;;3.33;3.00;;;6.40;95.40;;;;;;5053513;28;20190;-74
2023/04/11 03:11:02;;;;;;;2.53;2.33;;;6.50;95.10;;;;;;5059521;28;20180;-73
2023/04/11 03:13:28;;;;;;;2.93;2.63;;;6.40;95.20;;;;;;5056397;28;20894;-73
2023/04/11 03:15:54;;;;;;;2.33;2.20;;;6.40;95.30;;;;;;5058224;28;20179;-74
2023/04/11 03:18:21;;;;;;;3.13;2.83;;;6.40;95.30;;;;;;5057683;28;20182;-74
2023/04/11 03:20:47;;;;;;;3.20;2.70;;;6.50;95.20;;;;;;5057868;28;20184;-73
2023/04/11 03:23:13;;;;;;;7.97;3.13;;;6.50;94.90;;;;;;5054631;28;20728;-74
2023/04/11 03:25:39;;;;;;;3.10;2.80;;;6.40;94.70;;;;;;5056052;28;20179;-73
2023/04/11 03:28:05;;;;;;;4.20;3.20;;;6.50;94.60;;;;;;5057627;28;20186;-74
2023/04/11 03:30:31;;;;;;;4.13;3.10;;;6.50;94.60;;;;;;5052945;28;20221;-74
2023/04/11 03:33:00;;;;;;;4.23;2.93;;;6.50;94.50;;;;;;5054999;28;20674;-74
2023/04/11 03:35:29;;;;;;;3.10;2.80;;;6.50;94.40;;;;;;5058163;28;20186;-74
2023/04/11 03:37:55;;;;;;;3.97;2.60;;;6.50;94.40;;;;;;5054940;28;20669;-75
2023/04/11 03:40:20;;;;;;;2.87;2.67;;;6.50;94.30;;;;;;5055617;28;20191;-72
2023/04/11 03:42:46;;;;;;;4.20;3.90;;;6.50;94.50;;;;;;5058340;28;20721;-74
2023/04/11 03:45:12;;;;;;;3.03;2.77;;;6.40;94.40;;;;;;5053035;28;20275;-74
2023/04/11 03:47:39;;;;;;;3.00;2.70;;;6.50;94.30;;;;;;5057116;28;20207;-74
2023/04/11 03:50:06;;;;;;;4.23;3.10;;;6.50;94.20;;;;;;5056806;28;20953;-75
2023/04/11 03:52:34;;;;;;;3.97;3.27;;;6.60;94.20;;;;;;5058199;28;20298;-74
2023/04/11 03:55:01;;;;;;;3.63;3.33;;;6.60;94.00;;;;;;5057803;28;20289;-74
2023/04/11 03:57:27;;;;;;;2.87;2.67;;;6.50;94.20;;;;;;5051182;28;20270;-75
2023/04/11 03:59:54;;;;;;;3.80;3.50;;;6.40;94.40;;;;;;5058539;28;20675;-75
2023/04/11 04:02:20;;;;;;;3.70;3.37;;;6.40;94.60;;;;;;5053812;28;20194;-74
2023/04/11 04:04:49;;;;;;;3.50;3.23;;;6.40;94.70;;;;;;5056494;28;20178;-75
2023/04/11 04:07:16;;;;;;;4.37;3.87;;;6.30;94.70;;;;;;5060290;28;20188;-72
2023/04/11 04:09:42;;;;;;;4.90;3.30;;;6.30;94.80;;;;;;5055181;28;20273;-74
2023/04/11 04:12:08;;;;;;;4.83;3.43;;;6.40;94.70;;;;;;5061464;28;20203;-74
2023/04/11 04:14:34;;;;;;;2.77;2.57;;;6.40;94.70;;;;;;5053011;28;20262;-74
2023/04/11 04:16:59;;;;;;;5.80;3.30;;;6.30;94.80;;;;;;5056242;28;20547;-74
2023/04/11 04:19:25;;;;;;;4.37;3.23;;;6.30;95.00;;;;;;5056648;28;20183;-74
2023/04/11 04:21:51;;;;;;;6.47;3.73;;;6.30;95.00;;;;;;5050567;28;20179;-74
2023/04/11 04:24:16;;;;;;;3.60;3.30;;;6.30;94.80;;;;;;5051135;28;20184;-73
2023/04/11 04:26:42;;;;;;;5.50;3.37;;;6.30;94.80;;;;;;5052163;28;20561;-73
2023/04/11 04:29:09;;;;;;;6.03;3.97;;;6.30;94.80;;;;;;5059987;28;21042;-74
2023/04/11 04:31:35;;;;;;;4.20;3.80;;;6.30;94.80;;;;;;5053201;28;20175;-74
2023/04/11 04:34:09;;;;;;;7.03;3.23;;;6.40;94.60;;;;;;5053642;28;20218;-74
2023/04/11 04:36:47;;;;;;;4.67;3.40;;;6.30;94.60;;;;;;5051534;28;20707;-73
2023/04/11 04:39:16;;;;;;;6.53;3.80;;;6.20;95.00;;;;;;5057673;28;20257;-73
2023/04/11 04:41:47;;;;;;;5.90;3.97;;;6.20;95.20;;;;;;5055111;28;20194;-73
2023/04/11 04:44:16;;;;;;;5.33;3.43;;;6.30;95.00;;;;;;5055988;28;20222;-73
2023/04/11 04:46:42;;;;;;;6.13;3.93;;;6.30;94.80;;;;;;5056409;28;20607;-74
2023/04/11 04:49:08;;;;;;;5.20;4.10;;;6.20;95.20;;;;;;5054051;28;20183;-74
2023/04/11 04:51:39;;;;;;;5.10;3.90;;;6.30;95.00;;;;;;5052006;28;20603;-74
2023/04/11 04:54:05;;;;;;;4.60;3.43;;;6.20;95.00;;;;;;5055514;28;20234;-74
2023/04/11 04:56:30;;;;;;;3.20;2.97;;;6.20;95.30;;;;;;5053900;28;20180;-74
2023/04/11 04:58:56;;;;;;;5.53;3.67;;;6.10;95.40;;;;;;5050193;28;20188;-73
2023/04/11 05:01:25;;;;;;;4.77;4.23;;;6.10;95.50;;;;;;5055061;28;20189;-74
2023/04/11 05:03:58;;;;;;;3.80;3.27;;;6.10;95.40;;;;;;5056140;28;20673;-74
2023/04/11 05:06:28;;;;;;;5.77;3.53;;;6.00;95.50;;;;;;5048926;28;20190;-73
2023/04/11 05:08:58;;;;;;;6.40;4.43;;;6.10;95.30;;;;;;5086729;28;20187;-73
2023/04/11 05:11:27;;;;;;;7.47;4.37;;;6.20;95.20;;;;;;5054472;28;20709;-74
2023/04/11 05:13:53;;;;;;;5.90;3.80;;;6.20;94.60;;;;;;5051268;28;20211;-74
2023/04/11 05:16:20;;;;;;;7.47;4.43;;;6.20;94.70;;;;;;5053027;28;20190;-75
2023/04/11 05:18:46;;;;;;;4.17;3.90;;;6.30;94.30;;;;;;5053133;28;20665;-73
2023/04/11 05:21:13;;;;;;;3.53;3.23;;;6.40;94.10;;;;;;5051733;28;20198;-74
2023/04/11 05:23:39;;;;;;;5.17;3.87;;;6.30;93.90;;;;;;5053359;28;20196;-74
2023/04/11 05:26:06;;;;;;;7.53;3.60;;;6.30;94.10;;;;;;5055146;28;20184;-75
2023/04/11 05:28:32;;;;;;;5.33;3.80;;;6.30;94.10;;;;;;5054244;28;20176;-74
2023/04/11 05:30:57;;;;;;;4.30;3.27;;;6.40;93.90;;;;;;5053741;28;20191;-74
2023/04/11 05:33:23;;;;;;;4.30;3.90;;;6.40;93.80;;;;;;5054349;28;20680;-74
2023/04/11 05:35:50;;;;;;;5.10;4.03;;;6.30;93.80;;;;;;5056268;28;20581;-74
2023/04/11 05:38:15;;;;;;;5.37;3.63;;;6.40;94.00;;;;;;5057257;28;20187;-74
2023/04/11 05:40:41;;;;;;;4.17;3.17;;;6.40;93.90;;;;;;5058512;28;20235;-74
2023/04/11 05:43:10;;;;;;;3.67;2.97;;;6.40;93.80;;;;;;5053161;28;20201;-73
2023/04/11 05:45:36;;;;;;;5.23;3.77;;;6.40;93.80;;;;;;5053511;28;20185;-73
2023/04/11 05:48:03;;;;;;;4.30;3.50;;;6.50;93.60;;;;;;5047262;28;20189;-74
2023/04/11 05:50:28;;;;;;;5.03;3.43;;;6.50;93.60;;;;;;5055154;28;20175;-74
2023/04/11 05:52:54;;;;;;;3.80;3.30;;;6.60;93.40;;;;;;5053009;28;20574;-71
2023/04/11 05:55:20;;;;;;;3.80;3.47;;;6.70;93.10;;;;;;5051812;28;20612;-74
2023/04/11 05:57:46;;;;;;;6.20;3.90;;;6.70;92.80;;;;;;5056439;28;20188;-73
2023/04/11 06:00:13;;;;;;;6.53;3.70;;;6.80;92.80;;;;;;5056136;28;20168;-74
2023/04/11 06:02:41;;;;;;;3.80;3.40;;;6.90;92.50;;;;;;5050959;28;20179;-74
2023/04/11 06:05:09;;;;;;;3.67;3.40;;;7.00;92.40;;;;;;5057745;28;20179;-74
2023/04/11 06:07:35;;;;;;;5.30;3.30;;;7.10;92.10;;;;;;5056070;28;20191;-74
2023/04/11 06:10:01;;;;;;;3.33;2.83;;;7.20;91.70;;;;;;5057157;28;20178;-74
2023/04/11 06:12:27;;;;;;;3.23;2.93;;;7.30;91.10;;;;;;5057009;28;20211;-73
2023/04/11 06:14:53;;;;;;;5.47;4.37;;;7.30;90.70;;;;;;5056471;28;20258;-74
2023/04/11 06:17:18;;;;;;;4.20;3.50;;;7.30;90.90;;;;;;5056584;28;20857;-73
2023/04/11 06:19:44;;;;;;;4.10;3.70;;;7.30;90.90;;;;;;5062463;28;20174;-74
2023/04/11 06:22:10;;;;;;;4.10;3.43;;;7.30;90.60;;;;;;5056805;28;20192;-75
2023/04/11 06:24:38;;;;;;;2.90;2.70;;;7.20;90.60;;;;;;5058815;28;20264;-75
2023/04/11 06:27:03;;;;;;;3.30;3.00;;;7.20;90.90;;;;;;5057564;28;20536;-75
2023/04/11 06:29:29;;;;;;;3.40;3.10;;;7.30;90.20;;;;;;5057344;28;20187;-74
2023/04/11 06:31:56;;;;;;;3.40;3.20;;;7.40;90.50;;;;;;5055685;28;20186;-73
2023/04/11 06:34:22;;;;;;;5.07;3.63;;;7.50;90.10;;;;;;5062282;28;20182;-73
2023/04/11 06:36:48;;;;;;;3.53;3.00;;;7.60;89.70;;;;;;5057839;28;20188;-73
2023/04/11 06:39:17;;;;;;;3.83;3.50;;;7.70;89.30;;;;;;5057673;28;20183;-74
2023/04/11 06:41:43;;;;;;;3.43;3.17;;;7.90;89.20;;;;;;5058614;28;20559;-71
2023/04/11 06:44:09;;;;;;;5.07;3.47;;;8.00;88.10;;;;;;5054247;28;20186;-74
2023/04/11 06:46:35;;;;;;;3.13;2.87;;;8.20;87.90;;;;;;5055576;28;20179;-74
2023/04/11 06:49:02;;;;;;;3.27;2.97;;;8.20;87.50;;;;;;5062484;28;20175;-74
2023/04/11 06:51:28;;;;;;;3.57;3.27;;;8.20;87.50;;;;;;5058025;28;20186;-75
2023/04/11 06:53:53;;;;;;;2.90;2.70;;;8.20;87.10;;;;;;5056027;28;20264;-74
2023/04/11 06:56:19;;;;;;;3.07;2.87;;;8.20;86.60;;;;;;5057250;28;20191;-74
2023/04/11 06:58:45;;;;;;;4.30;3.13;;;8.30;86.70;;;;;;5053399;28;20178;-74
2023/04/11 07:01:13;;;;;;;4.17;3.77;;;8.40;86.50;;;;;;5057879;28;20180;-75
2023/04/11 07:03:38;;;;;;;2.93;2.73;;;8.30;86.00;;;;;;5060928;28;20256;-74
2023/04/11 07:06:06;;;;;;;3.23;2.93;;;8.20;85.90;;;;;;5059649;28;20894;-74
2023/04/11 07:08:32;;;;;;;3.17;2.90;;;8.10;86.00;;;;;;5050192;28;20262;-74
2023/04/11 07:10:58;;;;;;;3.07;2.67;;;8.00;86.70;;;;;;5056701;28;20195;-73
2023/04/11 07:13:23;;;;;;;2.70;2.47;;;7.90;86.80;;;;;;5056364;28;20211;-74
2023/04/11 07:15:49;;;;;;;2.77;2.57;;;8.00;87.10;;;;;;5056242;28;20180;-74
2023/04/11 07:18:15;;;;;;;3.83;3.20;;;8.10;87.20;;;;;;5058390;28;20179;-74
2023/04/11 07:20:41;;;;;;;2.93;2.50;;;8.20;86.90;;;;;;5055467;28;20199;-75
2023/04/11 07:23:07;;;;;;;2.97;2.50;;;8.40;86.70;;;;;;5058627;28;20187;-75
2023/04/11 07:25:32;;;;;;;2.53;2.33;;;8.30;86.30;;;;;;5055085;28;20183;-74
2023/04/11 07:28:07;;;;;;;3.10;2.73;;;8.20;86.60;;;;;;5055069;28;20665;-75
2023/04/11 07:30:34;;;;;;;5.27;2.60;;;8.20;86.00;;;;;;5056395;28;20174;-74
2023/04/11 07:33:00;;;;;;;3.23;2.00;;;8.30;86.00;;;;;;5052923;28;20742;-74
2023/04/11 07:35:27;;;;;;;4.00;3.00;;;8.40;85.80;;;;;;5056508;28;20683;-73
2023/04/11 07:37:53;;;;;;;3.57;2.77;;;8.70;85.50;;;;;;5055746;28;20635;-74
2023/04/11 07:40:19;;;;;;;3.03;2.83;;;8.80;85.20;;;;;;5049300;28;20188;-74
2023/04/11 07:42:45;;;;;;;2.63;2.43;;;8.80;85.30;;;;;;5057118;28;20220;-73
2023/04/11 07:45:11;;;;;;;2.63;2.30;;;8.80;84.80;;;;;;5054912;28;20195;-75
2023/04/11 07:47:37;;;;;;;2.77;2.57;;;8.80;84.30;;;;;;5058940;28;20220;-74
2023/04/11 07:50:03;;;;;;;3.13;2.90;;;8.80;84.30;;;;;;5054389;28;20203;-74
2023/04/11 07:52:29;;;;;;;2.57;2.37;;;9.00;83.70;;;;;;5058168;28;20319;-75
2023/04/11 07:54:55;;;;;;;3.07;2.77;;;9.10;83.20;;;;;;5050949;28;20223;-73
2023/04/11 07:57:20;;;;;;;3.00;2.80;;;9.30;83.20;;;;;;5057170;28;20252;-76
2023/04/11 07:59:46;;;;;;;2.87;2.67;;;9.40;83.00;;;;;;5054386;28;20180;-74
2023/04/11 08:02:12;;;;;;;2.60;2.40;;;9.60;82.80;;;;;;5060475;28;20187;-74
2023/04/11 08:04:37;;;;;;;2.97;2.67;;;9.60;81.30;;;;;;5058860;28;20191;-74
2023/04/11 08:07:03;;;;;;;2.20;2.10;;;9.70;81.90;;;;;;5054370;28;20649;-74
2023/04/11 08:09:29;;;;;;;2.90;2.70;;;9.70;81.60;;;;;;5053877;28;20186;-74
2023/04/11 08:11:58;;;;;;;3.67;2.67;;;9.80;81.60;;;;;;5052351;28;20654;-74
2023/04/11 08:14:24;;;;;;;3.03;2.67;;;9.90;80.70;;;;;;5049932;28;20188;-75
2023/04/11 08:16:51;;;;;;;2.55;2.38;;;10.20;80.40;;;;;;5057112;28;20221;-74
2023/04/11 08:19:17;;;;;;;2.72;2.53;;;10.40;79.40;;;;;;5051913;28;20183;-74
2023/04/11 08:21:42;;;;;;;2.47;2.33;;;10.30;79.00;;;;;;5055621;28;20617;-74
2023/04/11 08:24:08;;;;;;;2.88;2.67;;;10.30;79.00;;;;;;5050405;28;20645;-75
2023/04/11 08:26:34;;;;;;;3.57;2.70;;;10.30;79.30;;;;;;5057235;28;20574;-75
2023/04/11 08:29:00;;;;;;;2.67;2.50;;;10.20;78.80;;;;;;5056352;28;20174;-75
2023/04/11 08:31:27;;;;;;;2.78;2.58;;;10.30;78.70;;;;;;5052415;28;20175;-74
2023/04/11 08:33:53;;;;;;;4.30;2.58;;;10.20;78.00;;;;;;5054002;28;20287;-74
2023/04/11 08:36:19;;;;;;;2.80;2.45;;;10.40;78.40;;;;;;5054676;28;20729;-75
2023/04/11 08:38:44;;;;;;;3.47;2.60;;;10.50;77.40;;;;;;5056637;28;20291;-74
2023/04/11 08:41:11;;;;;;;2.65;2.55;;;10.70;77.40;;;;;;5058310;28;20195;-74
2023/04/11 08:43:39;;;;;;;2.67;2.00;;;10.80;76.20;;;;;;5050164;28;20278;-74
2023/04/11 08:46:08;;;;;;;2.10;2.00;;;10.60;75.20;;;;;;5054533;28;20179;-74
2023/04/11 08:48:34;;;;;;;2.65;2.45;;;10.60;76.10;;;;;;5051108;28;20187;-74
2023/04/11 08:51:00;;;;;;;2.00;1.90;;;10.80;76.10;;;;;;5054172;28;20175;-74
2023/04/11 08:53:28;;;;;;;3.78;2.78;;;11.10;75.50;;;;;;5055828;28;20206;-75
2023/04/11 08:55:53;;;;;;;1.98;1.88;;;11.40;75.20;;;;;;5052433;28;20616;-74
2023/04/11 08:58:19;;;;;;;2.40;2.20;;;11.50;73.40;;;;;;5059384;28;20222;-74
2023/04/11 09:00:45;;;;;;;2.63;2.50;;;11.60;72.90;;;;;;5052397;28;20611;-74
2023/04/11 09:03:14;;;;;;;3.08;2.83;;;11.80;73.40;;;;;;5053531;28;20229;-73
2023/04/11 09:05:44;;;;;;;2.85;2.75;;;12.30;72.30;;;;;;5057715;28;20172;-74
2023/04/11 09:08:11;;;;;;;3.72;3.42;;;12.50;70.90;;;;;;5051702;28;20184;-75
2023/04/11 09:10:39;;;;;;;3.08;2.78;;;12.70;71.00;;;;;;5049584;28;20211;-75
2023/04/11 09:13:23;;;;;;;2.83;2.63;;;12.90;71.40;;;;;;5056962;28;20265;-74
2023/04/11 09:16:08;;;;;;;3.13;2.85;;;13.00;70.00;;;;;;5056297;28;20183;-74
2023/04/11 09:18:37;;;;;;;2.92;2.70;;;12.60;69.80;;;;;;5053162;28;20180;-74
2023/04/11 09:21:12;;;;;;;2.60;2.45;;;12.80;70.50;;;;;;5058693;28;20186;-74
2023/04/11 09:23:38;;;;;;;2.72;2.53;;;13.60;68.70;;;;;;5050667;28;20179;-74
2023/04/11 09:26:08;;;;;;;2.90;2.75;;;14.00;67.40;;;;;;5053161;28;20286;-74
2023/04/11 09:28:49;;;;;;;6.00;3.47;;;14.20;67.20;;;;;;5052032;28;20179;-73
2023/04/11 09:31:15;;;;;;;3.47;3.17;;;14.40;67.20;;;;;;5048656;28;20191;-73
2023/04/11 09:33:55;;;;;;;3.78;3.17;;;14.70;66.40;;;;;;5054146;28;20219;-74
2023/04/11 09:36:27;;;;;;;3.47;3.17;;;14.70;66.10;;;;;;5053746;28;20213;-74
2023/04/11 09:38:54;;;;;;;3.45;3.15;;;14.40;66.50;;;;;;5052646;28;20668;-73
2023/04/11 09:41:34;;;;;;;3.33;3.05;;;14.20;67.20;;;;;;5062584;28;20190;-74
2023/04/11 09:44:01;;;;;;;4.65;3.60;;;14.10;67.30;;;;;;5059156;28;20182;-73
2023/04/11 09:46:26;;;;;;;3.55;3.35;;;13.90;67.30;;;;;;5058382;28;20171;-74
2023/04/11 09:48:53;;;;;;;3.47;3.28;;;13.30;68.50;;;;;;5055329;28;20183;-75
2023/04/11 09:51:19;;;;;;;2.92;2.83;;;13.10;69.70;;;;;;5053585;28;20649;-73
2023/04/11 09:53:45;;;;;;;3.70;3.42;;;13.00;69.10;;;;;;5056393;28;20203;-74
2023/04/11 09:56:12;;;;;;;2.97;2.78;;;13.00;68.90;;;;;;5057402;28;20630;-74
2023/04/11 09:58:39;;;;;;;3.75;3.55;;;13.00;69.50;;;;;;5060190;28;20174;-74
2023/04/11 10:01:08;;;;;;;2.70;2.50;;;13.00;68.90;;;;;;5059916;28;20180;-75
2023/04/11 10:03:35;;;;;;;3.45;3.33;;;13.00;69.20;;;;;;5061770;28;20179;-73
2023/04/11 10:06:08;;;;;;;3.70;3.42;;;13.00;69.20;;;;;;5055970;28;20683;-73
2023/04/11 10:08:36;;;;;;;4.00;3.28;;;13.30;69.40;;;;;;5056451;28;20183;-74
2023/04/11 10:11:08;;;;;;;3.17;2.97;;;13.50;68.10;;;;;;5057585;28;20183;-76
2023/04/11 10:13:41;;;;;;;3.67;3.00;;;13.60;67.30;;;;;;5060567;28;20199;-74
2023/04/11 10:16:10;;;;;;;3.72;3.42;;;13.30;67.30;;;;;;5059088;28;20184;-74
2023/04/11 10:18:36;;;;;;;3.35;3.10;;;13.40;67.80;;;;;;5055886;28;20175;-74
2023/04/11 10:21:04;;;;;;;3.28;2.95;;;13.40;67.20;;;;;;5053922;28;20180;-75
2023/04/11 10:24:08;;;;;;;3.28;2.97;;;13.40;67.00;;;;;;5059697;28;20182;-74
2023/04/11 10:26:58;;;;;;;2.92;2.72;;;13.60;66.60;;;;;;5059468;28;20568;-74
2023/04/11 10:29:33;;;;;;;3.53;3.22;;;13.80;66.10;;;;;;5057339;28;20179;-74
2023/04/11 10:32:14;;;;;;;3.28;3.08;;;14.00;66.60;;;;;;5054723;28;20699;-74
2023/04/11 10:34:49;;;;;;;2.95;2.67;;;14.30;65.90;;;;;;5059679;28;20179;-74
2023/04/11 10:37:16;;;;;;;3.75;3.45;;;14.50;65.00;;;;;;5058301;28;20187;-74
2023/04/11 10:39:54;;;;;;;3.47;3.20;;;15.10;64.10;;;;;;5057815;28;20938;-74
2023/04/11 10:42:30;;;;;;;3.85;3.50;;;16.00;61.90;;;;;;5058350;28;20183;-76
2023/04/11 10:45:15;;;;;;;3.47;2.97;;;16.30;60.50;;;;;;5055276;28;20187;-74
2023/04/11 10:47:41;;;;;;;3.03;2.83;;;17.10;60.30;;;;;;5054135;28;20176;-74
2023/04/11 10:50:25;;;;;;;3.00;2.70;;;18.00;57.20;;;;;;5060651;28;20186;-75
2023/04/11 10:52:54;;;;;;;3.03;2.83;;;18.70;55.50;;;;;;5051873;28;20211;-74
2023/04/11 10:55:21;;;;;;;3.00;2.80;;;18.50;55.10;;;;;;5052878;28;20566;-74
2023/04/11 10:58:18;;;;;;;3.20;3.03;;;17.80;56.30;;;;;;5054701;28;20188;-75
2023/04/11 11:00:47;;;;;;;3.97;3.67;;;17.40;57.90;;;;;;5055848;28;20179;-74
2023/04/11 11:03:24;;;;;;;3.15;3.00;;;17.60;57.60;;;;;;5057424;28;20182;-75
2023/04/11 11:06:08;;;;;;;3.05;2.88;;;18.60;55.20;;;;;;5056153;28;20186;-75
2023/04/11 11:08:40;;;;;;;2.97;2.85;;;19.60;54.70;;;;;;5048786;28;20188;-75
2023/04/11 11:11:10;;;;;;;2.72;2.53;;;20.50;52.40;;;;;;5056172;28;20179;-75
2023/04/11 11:13:46;;;;;;;3.35;3.05;;;20.80;50.90;;;;;;5055282;28;20218;-75
2023/04/11 11:16:24;;;;;;;3.60;3.38;;;20.20;51.20;;;;;;5055272;28;20214;-75
2023/04/11 11:18:52;;;;;;;3.25;2.97;;;18.90;53.70;;;;;;5053463;28;20190;-75
2023/04/11 11:21:22;;;;;;;2.63;2.53;;;17.40;55.60;;;;;;5052764;28;20614;-75
2023/04/11 11:23:55;;;;;;;3.60;3.38;;;16.20;57.80;;;;;;5060559;28;20691;-75
2023/04/11 11:26:21;;;;;;;3.20;3.00;;;15.40;59.40;;;;;;5058745;28;20218;-75
2023/04/11 11:28:47;;;;;;;3.50;3.30;;;14.70;60.50;;;;;;5055090;28;20213;-75
2023/04/11 11:31:13;;;;;;;3.88;3.58;;;14.30;62.10;;;;;;5054162;28;20179;-75
2023/04/11 11:33:43;;;;;;;3.60;3.30;;;14.00;63.70;;;;;;5056525;28;20207;-75
2023/04/11 11:36:10;;;;;;;5.18;3.17;;;13.90;64.70;;;;;;5059470;28;20255;-75
2023/04/11 11:38:36;;;;;;;3.38;2.97;;;14.00;64.70;;;;;;5054136;28;20710;-75
2023/04/11 11:41:02;;;;;;;3.45;2.53;;;15.10;62.60;;;;;;5055643;28;20183;-75
2023/04/11 11:43:28;;;;;;;3.35;3.05;;;16.50;60.80;;;;;;5056826;28;20222;-75
2023/04/11 11:46:08;;;;;;;2.92;2.75;;;17.00;57.60;;;;;;5058475;28;20183;-74
2023/04/11 11:48:34;;;;;;;2.40;2.30;;;17.00;57.40;;;;;;5057727;28;20175;-75
2023/04/11 11:50:59;;;;;;;3.60;3.33;;;16.60;57.10;;;;;;5059673;28;20305;-75
2023/04/11 11:53:25;;;;;;;3.42;3.15;;;16.30;58.60;;;;;;5057612;28;20219;-75
2023/04/11 11:55:52;;;;;;;2.95;2.83;;;16.50;58.40;;;;;;5052884;28;20195;-75
2023/04/11 11:58:18;;;;;;;3.20;3.00;;;17.50;56.60;;;;;;5056835;28;20239;-75
2023/04/11 12:00:50;;;;;;;3.97;3.67;;;17.70;56.60;;;;;;5057074;28;20322;-75
2023/04/11 12:03:19;;;;;;;3.50;3.08;;;17.40;56.20;;;;;;5058322;28;20243;-75
2023/04/11 12:05:46;;;;;;;2.92;2.72;;;17.50;56.80;;;;;;5054106;28;20546;-74
2023/04/11 12:08:12;;;;;;;3.13;2.75;;;17.80;55.20;;;;;;5051706;28;20180;-73
2023/04/11 12:10:44;;;;;;;3.47;3.28;;;17.80;55.30;;;;;;5052372;28;20248;-74
2023/04/11 12:13:25;;;;;;;3.38;3.10;;;18.50;55.70;;;;;;5054951;28;20244;-75
2023/04/11 12:15:53;;;;;;;3.53;3.33;;;18.70;53.40;;;;;;5056386;28;20214;-75
2023/04/11 12:18:20;;;;;;;3.38;3.08;;;18.00;54.10;;;;;;5054680;28;20754;-75
2023/04/11 12:20:46;;;;;;;2.97;2.83;;;17.30;55.40;;;;;;5052358;28;20168;-75
2023/04/11 12:23:12;;;;;;;3.25;2.97;;;17.20;55.80;;;;;;5053778;28;20668;-75
2023/04/11 12:25:37;;;;;;;3.78;3.47;;;17.60;55.30;;;;;;5054280;28;20187;-75
2023/04/11 12:28:03;;;;;;;3.90;3.33;;;18.40;54.60;;;;;;5055626;28;20186;-75
2023/04/11 12:30:29;;;;;;;3.50;3.28;;;18.40;53.70;;;;;;5054537;28;20183;-75
2023/04/11 12:32:55;;;;;;;4.05;3.75;;;17.70;54.80;;;;;;5050459;28;20207;-75
2023/04/11 12:35:21;;;;;;;3.40;3.20;;;17.50;55.50;;;;;;5052170;28;20183;-75
2023/04/11 12:37:46;;;;;;;3.88;3.60;;;16.90;56.90;;;;;;5058894;28;20171;-75
2023/04/11 12:40:14;;;;;;;4.25;3.42;;;16.80;57.20;;;;;;5056380;28;20714;-75
2023/04/11 12:42:40;;;;;;;3.80;3.50;;;16.50;57.90;;;;;;5054109;28;20568;-75
2023/04/11 12:45:07;;;;;;;4.35;4.00;;;16.10;58.10;;;;;;5054710;28;20192;-75
2023/04/11 12:47:33;;;;;;;3.42;3.13;;;15.80;59.20;;;;;;5050081;28;20206;-75
2023/04/11 12:50:00;;;;;;;3.58;3.22;;;16.60;57.30;;;;;;5055740;28;20180;-75
2023/04/11 12:52:26;;;;;;;2.92;2.72;;;17.10;56.10;;;;;;5052311;28;20179;-75
2023/04/11 12:54:51;;;;;;;2.90;2.75;;;17.70;55.60;;;;;;5054650;28;20248;-75